sensor_id;sensor_type;location;lat;lon;timestamp;pressure;altitude;pressure_sealevel;temperature;humidity
7760;BME280;3924;48.830;9.262;2023-03-13T00:01:35;98155.94;;;7.59;75.28
7760;BME280;3924;48.830;9.262;2023-03-13T00:04:03;98158.41;;;7.56;75.34
7760;BME280;3924;48.830;9.262;2023-03-13T00:06:35;98154.38;;;7.53;75.45
7760;BME280;3924;48.830;9.262;2023-03-13T00:09:07;98153.06;;;7.51;75.66
7760;BME280;3924;48.830;9.262;2023-03-13T00:11:34;98156.06;;;7.49;75.92
7760;BME280;3924;48.830;9.262;2023-03-13T00:14:01;98150.91;;;7.48;75.64
7760;BME280;3924;48.830;9.262;2023-03-13T00:16:29;98155.78;;;7.46;75.72
7760;BME280;3924;48.830;9.262;2023-03-13T00:18:57;98144.50;;;7.44;76.13
7760;BME280;3924;48.830;9.262;2023-03-13T00:21:26;98146.66;;;7.42;75.64
7760;BME280;3924;48.830;9.262;2023-03-13T00:23:53;98143.72;;;7.38;75.94
7760;BME280;3924;48.830;9.262;2023-03-13T00:26:23;98142.41;;;7.35;76.16
7760;BME280;3924;48.830;9.262;2023-03-13T00:28:50;98145.09;;;7.35;76.46
7760;BME280;3924;48.830;9.262;2023-03-13T00:31:22;98141.59;;;7.35;76.02
7760;BME280;3924;48.830;9.262;2023-03-13T00:33:52;98136.75;;;7.32;76.20
7760;BME280;3924;48.830;9.262;2023-03-13T00:36:23;98133.78;;;7.33;76.20
7760;BME280;3924;48.830;9.262;2023-03-13T00:38:52;98133.78;;;7.33;76.70
7760;BME280;3924;48.830;9.262;2023-03-13T00:41:23;98130.81;;;7.35;76.27
7760;BME280;3924;48.830;9.262;2023-03-13T00:43:51;98137.00;;;7.35;76.18
7760;BME280;3924;48.830;9.262;2023-03-13T00:46:20;98126.22;;;7.35;76.36
7760;BME280;3924;48.830;9.262;2023-03-13T00:48:47;98122.97;;;7.33;76.71
7760;BME280;3924;48.830;9.262;2023-03-13T00:51:14;98116.53;;;7.34;76.51
7760;BME280;3924;48.830;9.262;2023-03-13T00:53:41;98115.44;;;7.35;76.52
7760;BME280;3924;48.830;9.262;2023-03-13T00:56:12;98109.47;;;7.38;76.46
7760;BME280;3924;48.830;9.262;2023-03-13T00:58:41;98106.47;;;7.40;76.56
7760;BME280;3924;48.830;9.262;2023-03-13T01:03:45;98098.59;;;7.49;76.29
7760;BME280;3924;48.830;9.262;2023-03-13T01:06:14;98098.50;;;7.59;76.55
7760;BME280;3924;48.830;9.262;2023-03-13T01:08:41;98092.19;;;7.68;76.49
7760;BME280;3924;48.830;9.262;2023-03-13T01:11:10;98092.94;;;7.74;76.11
7760;BME280;3924;48.830;9.262;2023-03-13T01:13:38;98077.81;;;7.78;76.02
7760;BME280;3924;48.830;9.262;2023-03-13T01:16:13;98078.28;;;7.85;76.23
7760;BME280;3924;48.830;9.262;2023-03-13T01:18:46;98071.22;;;7.89;76.14
7760;BME280;3924;48.830;9.262;2023-03-13T01:21:13;98073.34;;;7.92;75.51
7760;BME280;3924;48.830;9.262;2023-03-13T01:23:40;98064.94;;;7.94;75.97
7760;BME280;3924;48.830;9.262;2023-03-13T01:26:07;98064.66;;;7.95;75.92
7760;BME280;3924;48.830;9.262;2023-03-13T01:28:34;98051.16;;;7.95;76.09
7760;BME280;3924;48.830;9.262;2023-03-13T01:34:04;98054.91;;;8.00;76.22
7760;BME280;3924;48.830;9.262;2023-03-13T01:36:31;98041.13;;;8.01;76.21
7760;BME280;3924;48.830;9.262;2023-03-13T01:38:59;98034.25;;;8.09;75.70
7760;BME280;3924;48.830;9.262;2023-03-13T01:41:27;98032.31;;;8.14;75.32
7760;BME280;3924;48.830;9.262;2023-03-13T01:43:54;98022.84;;;8.17;75.54
7760;BME280;3924;48.830;9.262;2023-03-13T01:46:23;98020.34;;;8.20;75.81
7760;BME280;3924;48.830;9.262;2023-03-13T01:48:54;98015.19;;;8.24;75.56
7760;BME280;3924;48.830;9.262;2023-03-13T01:51:26;98018.41;;;8.26;75.46
7760;BME280;3924;48.830;9.262;2023-03-13T01:54:07;98012.50;;;8.24;75.84
7760;BME280;3924;48.830;9.262;2023-03-13T01:56:39;98011.69;;;8.23;75.58
7760;BME280;3924;48.830;9.262;2023-03-13T01:59:09;98009.25;;;8.22;75.88
7760;BME280;3924;48.830;9.262;2023-03-13T02:01:40;98005.47;;;8.23;75.44
7760;BME280;3924;48.830;9.262;2023-03-13T02:04:07;97998.47;;;8.22;75.71
7760;BME280;3924;48.830;9.262;2023-03-13T02:06:35;97992.50;;;8.25;75.84
7760;BME280;3924;48.830;9.262;2023-03-13T02:09:07;97983.72;;;8.33;75.61
7760;BME280;3924;48.830;9.262;2023-03-13T02:11:51;97969.13;;;8.34;75.04
7760;BME280;3924;48.830;9.262;2023-03-13T02:14:22;97966.16;;;8.36;75.59
7760;BME280;3924;48.830;9.262;2023-03-13T02:16:53;97961.56;;;8.36;75.24
7760;BME280;3924;48.830;9.262;2023-03-13T02:19:29;97954.78;;;8.39;75.11
7760;BME280;3924;48.830;9.262;2023-03-13T02:22:07;97958.78;;;8.41;75.10
7760;BME280;3924;48.830;9.262;2023-03-13T02:25:12;97960.31;;;8.47;75.38
7760;BME280;3924;48.830;9.262;2023-03-13T02:27:42;97963.81;;;8.48;75.26
7760;BME280;3924;48.830;9.262;2023-03-13T02:30:11;97965.44;;;8.49;74.86
7760;BME280;3924;48.830;9.262;2023-03-13T02:32:38;97960.25;;;8.53;75.45
7760;BME280;3924;48.830;9.262;2023-03-13T02:35:08;97963.47;;;8.55;74.79
7760;BME280;3924;48.830;9.262;2023-03-13T02:37:35;97961.84;;;8.54;75.14
7760;BME280;3924;48.830;9.262;2023-03-13T02:40:06;97948.34;;;8.54;75.60
7760;BME280;3924;48.830;9.262;2023-03-13T02:42:39;97944.25;;;8.56;75.00
7760;BME280;3924;48.830;9.262;2023-03-13T02:45:07;97932.94;;;8.54;74.80
7760;BME280;3924;48.830;9.262;2023-03-13T02:47:34;97927.25;;;8.56;75.24
7760;BME280;3924;48.830;9.262;2023-03-13T02:50:01;97925.63;;;8.55;75.11
7760;BME280;3924;48.830;9.262;2023-03-13T02:52:37;97917.03;;;8.53;75.16
7760;BME280;3924;48.830;9.262;2023-03-13T02:55:11;97906.44;;;8.56;75.03
7760;BME280;3924;48.830;9.262;2023-03-13T02:57:39;97907.22;;;8.57;75.47
7760;BME280;3924;48.830;9.262;2023-03-13T03:00:06;97905.56;;;8.61;74.72
7760;BME280;3924;48.830;9.262;2023-03-13T03:02:38;97882.91;;;8.57;74.73
7760;BME280;3924;48.830;9.262;2023-03-13T03:05:05;97887.22;;;8.58;74.52
7760;BME280;3924;48.830;9.262;2023-03-13T03:07:31;97883.44;;;8.59;74.93
7760;BME280;3924;48.830;9.262;2023-03-13T03:09:58;97872.03;;;8.62;74.57
7760;BME280;3924;48.830;9.262;2023-03-13T03:12:24;97874.44;;;8.63;75.26
7760;BME280;3924;48.830;9.262;2023-03-13T03:14:50;97876.25;;;8.68;74.78
7760;BME280;3924;48.830;9.262;2023-03-13T03:17:17;97874.84;;;8.70;74.62
7760;BME280;3924;48.830;9.262;2023-03-13T03:19:44;97869.66;;;8.74;75.14
7760;BME280;3924;48.830;9.262;2023-03-13T03:22:10;97867.88;;;8.83;74.91
7760;BME280;3924;48.830;9.262;2023-03-13T03:24:36;97859.66;;;8.88;74.45
7760;BME280;3924;48.830;9.262;2023-03-13T03:27:03;97858.00;;;8.92;74.64
7760;BME280;3924;48.830;9.262;2023-03-13T03:29:30;97856.88;;;8.93;74.63
7760;BME280;3924;48.830;9.262;2023-03-13T03:31:56;97874.09;;;8.97;74.46
7760;BME280;3924;48.830;9.262;2023-03-13T03:34:23;97860.88;;;8.96;74.14
7760;BME280;3924;48.830;9.262;2023-03-13T03:36:49;97853.06;;;8.94;74.81
7760;BME280;3924;48.830;9.262;2023-03-13T03:39:16;97856.56;;;8.95;74.42
7760;BME280;3924;48.830;9.262;2023-03-13T03:41:42;97858.47;;;8.94;74.97
7760;BME280;3924;48.830;9.262;2023-03-13T03:44:08;97860.69;;;8.92;74.58
7760;BME280;3924;48.830;9.262;2023-03-13T03:46:35;97854.19;;;8.93;74.73
7760;BME280;3924;48.830;9.262;2023-03-13T03:49:01;97852.47;;;8.97;74.63
7760;BME280;3924;48.830;9.262;2023-03-13T03:51:28;97835.94;;;8.99;74.71
7760;BME280;3924;48.830;9.262;2023-03-13T03:53:54;97841.66;;;8.97;75.22
7760;BME280;3924;48.830;9.262;2023-03-13T03:56:21;97850.28;;;8.99;75.31
7760;BME280;3924;48.830;9.262;2023-03-13T03:58:47;97847.84;;;8.98;75.22
7760;BME280;3924;48.830;9.262;2023-03-13T04:01:14;97850.28;;;8.99;75.30
7760;BME280;3924;48.830;9.262;2023-03-13T04:03:40;97835.84;;;9.04;75.20
7760;BME280;3924;48.830;9.262;2023-03-13T04:06:07;97839.25;;;9.10;75.04
7760;BME280;3924;48.830;9.262;2023-03-13T04:08:35;97848.97;;;9.11;75.05
7760;BME280;3924;48.830;9.262;2023-03-13T04:11:01;97842.47;;;9.12;75.08
7760;BME280;3924;48.830;9.262;2023-03-13T04:13:28;97840.75;;;9.16;75.19
7760;BME280;3924;48.830;9.262;2023-03-13T04:15:54;97832.56;;;9.21;75.49
7760;BME280;3924;48.830;9.262;2023-03-13T04:18:21;97823.34;;;9.22;75.07
7760;BME280;3924;48.830;9.262;2023-03-13T04:20:47;97822.72;;;9.25;75.16
7760;BME280;3924;48.830;9.262;2023-03-13T04:23:14;97819.44;;;9.28;75.23
7760;BME280;3924;48.830;9.262;2023-03-13T04:25:40;97816.59;;;9.33;75.23
7760;BME280;3924;48.830;9.262;2023-03-13T04:28:07;97810.78;;;9.40;75.45
7760;BME280;3924;48.830;9.262;2023-03-13T04:30:34;97811.00;;;9.43;75.40
7760;BME280;3924;48.830;9.262;2023-03-13T04:33:00;97812.06;;;9.56;75.25
7760;BME280;3924;48.830;9.262;2023-03-13T04:35:27;97809.03;;;9.71;75.31
7760;BME280;3924;48.830;9.262;2023-03-13T04:37:53;97805.16;;;9.86;74.88
7760;BME280;3924;48.830;9.262;2023-03-13T04:40:20;97813.00;;;10.10;74.90
7760;BME280;3924;48.830;9.262;2023-03-13T04:42:46;97802.13;;;10.24;74.78
7760;BME280;3924;48.830;9.262;2023-03-13T04:45:13;97805.88;;;10.36;74.56
7760;BME280;3924;48.830;9.262;2023-03-13T04:47:39;97814.19;;;10.40;74.30
7760;BME280;3924;48.830;9.262;2023-03-13T04:50:06;97821.06;;;10.46;75.06
7760;BME280;3924;48.830;9.262;2023-03-13T04:52:32;97816.66;;;10.50;75.17
7760;BME280;3924;48.830;9.262;2023-03-13T04:54:59;97802.50;;;10.62;74.74
7760;BME280;3924;48.830;9.262;2023-03-13T04:57:25;97807.00;;;10.66;75.02
7760;BME280;3924;48.830;9.262;2023-03-13T04:59:51;97821.84;;;10.69;74.82
7760;BME280;3924;48.830;9.262;2023-03-13T05:02:18;97813.09;;;10.72;75.11
7760;BME280;3924;48.830;9.262;2023-03-13T05:04:44;97817.09;;;10.75;75.49
7760;BME280;3924;48.830;9.262;2023-03-13T05:07:11;97810.53;;;10.76;74.91
7760;BME280;3924;48.830;9.262;2023-03-13T05:09:37;97817.88;;;10.75;75.12
7760;BME280;3924;48.830;9.262;2023-03-13T05:12:04;97808.00;;;10.71;74.80
7760;BME280;3924;48.830;9.262;2023-03-13T05:14:30;97820.91;;;10.74;75.24
7760;BME280;3924;48.830;9.262;2023-03-13T05:16:57;97804.00;;;10.77;75.20
7760;BME280;3924;48.830;9.262;2023-03-13T05:19:23;97811.66;;;10.75;75.71
7760;BME280;3924;48.830;9.262;2023-03-13T05:21:50;97805.75;;;10.73;75.03
7760;BME280;3924;48.830;9.262;2023-03-13T05:24:16;97808.78;;;10.71;75.63
7760;BME280;3924;48.830;9.262;2023-03-13T05:26:42;97807.16;;;10.70;75.98
7760;BME280;3924;48.830;9.262;2023-03-13T05:29:09;97811.97;;;10.73;75.69
7760;BME280;3924;48.830;9.262;2023-03-13T05:31:36;97810.69;;;10.71;75.66
7760;BME280;3924;48.830;9.262;2023-03-13T05:34:02;97811.00;;;10.69;76.41
7760;BME280;3924;48.830;9.262;2023-03-13T05:36:29;97805.28;;;10.71;75.69
7760;BME280;3924;48.830;9.262;2023-03-13T05:38:55;97803.06;;;10.73;76.54
7760;BME280;3924;48.830;9.262;2023-03-13T05:41:22;97799.84;;;10.71;76.28
7760;BME280;3924;48.830;9.262;2023-03-13T05:43:48;97792.81;;;10.69;76.16
7760;BME280;3924;48.830;9.262;2023-03-13T05:46:15;97793.94;;;10.68;76.53
7760;BME280;3924;48.830;9.262;2023-03-13T05:48:41;97809.06;;;10.69;76.39
7760;BME280;3924;48.830;9.262;2023-03-13T05:51:10;97806.25;;;10.75;77.06
7760;BME280;3924;48.830;9.262;2023-03-13T05:53:37;97797.00;;;10.76;76.85
7760;BME280;3924;48.830;9.262;2023-03-13T05:56:03;97792.56;;;10.80;76.09
7760;BME280;3924;48.830;9.262;2023-03-13T05:58:30;97794.19;;;10.89;76.29
7760;BME280;3924;48.830;9.262;2023-03-13T06:00:56;97788.81;;;10.98;76.39
7760;BME280;3924;48.830;9.262;2023-03-13T06:03:23;97779.03;;;10.97;76.59
7760;BME280;3924;48.830;9.262;2023-03-13T06:05:56;97784.97;;;10.99;76.35
7760;BME280;3924;48.830;9.262;2023-03-13T06:08:23;97792.00;;;11.00;76.48
7760;BME280;3924;48.830;9.262;2023-03-13T06:10:49;97789.59;;;10.99;76.08
7760;BME280;3924;48.830;9.262;2023-03-13T06:13:16;97787.19;;;10.97;76.38
7760;BME280;3924;48.830;9.262;2023-03-13T06:15:53;97777.97;;;10.98;76.90
7760;BME280;3924;48.830;9.262;2023-03-13T06:18:20;97789.75;;;11.02;76.74
7760;BME280;3924;48.830;9.262;2023-03-13T06:20:47;97787.88;;;11.11;76.42
7760;BME280;3924;48.830;9.262;2023-03-13T06:23:15;97797.47;;;11.17;76.39
7760;BME280;3924;48.830;9.262;2023-03-13T06:25:46;97798.25;;;11.18;76.61
7760;BME280;3924;48.830;9.262;2023-03-13T06:28:13;97793.00;;;11.21;76.29
7760;BME280;3924;48.830;9.262;2023-03-13T06:30:40;97790.47;;;11.25;76.87
7760;BME280;3924;48.830;9.262;2023-03-13T06:33:07;97793.34;;;11.29;76.43
7760;BME280;3924;48.830;9.262;2023-03-13T06:35:33;97781.38;;;11.30;76.00
7760;BME280;3924;48.830;9.262;2023-03-13T06:38:18;97782.97;;;11.31;76.52
7760;BME280;3924;48.830;9.262;2023-03-13T06:40:45;97780.44;;;11.34;76.38
7760;BME280;3924;48.830;9.262;2023-03-13T06:43:13;97770.53;;;11.38;76.33
7760;BME280;3924;48.830;9.262;2023-03-13T06:45:39;97776.59;;;11.44;76.12
7760;BME280;3924;48.830;9.262;2023-03-13T06:48:06;97784.13;;;11.47;76.21
7760;BME280;3924;48.830;9.262;2023-03-13T06:50:37;97790.03;;;11.49;76.01
7760;BME280;3924;48.830;9.262;2023-03-13T06:53:04;97796.91;;;11.55;76.62
7760;BME280;3924;48.830;9.262;2023-03-13T06:55:30;97783.81;;;11.57;76.50
7760;BME280;3924;48.830;9.262;2023-03-13T06:57:57;97797.38;;;11.57;76.84
7760;BME280;3924;48.830;9.262;2023-03-13T07:00:24;97801.69;;;11.58;76.32
7760;BME280;3924;48.830;9.262;2023-03-13T07:02:50;97802.66;;;11.62;76.69
7760;BME280;3924;48.830;9.262;2023-03-13T07:05:17;97801.69;;;11.58;76.71
7760;BME280;3924;48.830;9.262;2023-03-13T07:07:43;97797.88;;;11.59;76.83
7760;BME280;3924;48.830;9.262;2023-03-13T07:10:10;97805.06;;;11.64;76.48
7760;BME280;3924;48.830;9.262;2023-03-13T07:12:37;97803.16;;;11.64;76.84
7760;BME280;3924;48.830;9.262;2023-03-13T07:15:04;97809.22;;;11.61;76.23
7760;BME280;3924;48.830;9.262;2023-03-13T07:17:31;97819.56;;;11.59;76.21
7760;BME280;3924;48.830;9.262;2023-03-13T07:19:57;97817.84;;;11.63;76.09
7760;BME280;3924;48.830;9.262;2023-03-13T07:22:24;97822.28;;;11.59;76.64
7760;BME280;3924;48.830;9.262;2023-03-13T07:24:50;97816.56;;;11.61;76.73
7760;BME280;3924;48.830;9.262;2023-03-13T07:27:17;97817.97;;;11.58;77.06
7760;BME280;3924;48.830;9.262;2023-03-13T07:29:46;97814.16;;;11.59;76.63
7760;BME280;3924;48.830;9.262;2023-03-13T07:32:13;97807.13;;;11.58;76.31
7760;BME280;3924;48.830;9.262;2023-03-13T07:34:39;97816.56;;;11.61;77.28
7760;BME280;3924;48.830;9.262;2023-03-13T07:37:06;97805.22;;;11.59;76.57
7760;BME280;3924;48.830;9.262;2023-03-13T07:39:32;97797.25;;;11.62;77.38
7760;BME280;3924;48.830;9.262;2023-03-13T07:41:59;97793.41;;;11.63;77.34
7760;BME280;3924;48.830;9.262;2023-03-13T07:44:25;97792.44;;;11.59;76.97
7760;BME280;3924;48.830;9.262;2023-03-13T07:46:51;97787.78;;;11.60;77.22
7760;BME280;3924;48.830;9.262;2023-03-13T07:49:18;97790.22;;;11.61;77.14
7760;BME280;3924;48.830;9.262;2023-03-13T07:51:44;97782.06;;;11.61;77.16
7760;BME280;3924;48.830;9.262;2023-03-13T07:54:13;97783.53;;;11.67;76.72
7760;BME280;3924;48.830;9.262;2023-03-13T07:56:39;97774.25;;;11.68;76.78
7760;BME280;3924;48.830;9.262;2023-03-13T07:59:06;97780.94;;;11.71;77.27
7760;BME280;3924;48.830;9.262;2023-03-13T08:01:33;97776.16;;;11.76;77.48
7760;BME280;3924;48.830;9.262;2023-03-13T08:03:59;97765.97;;;11.82;77.48
7760;BME280;3924;48.830;9.262;2023-03-13T08:06:31;97757.19;;;11.85;76.75
7760;BME280;3924;48.830;9.262;2023-03-13T08:08:59;97759.41;;;11.92;77.33
7760;BME280;3924;48.830;9.262;2023-03-13T08:11:27;97757.50;;;12.01;76.44
7760;BME280;3924;48.830;9.262;2023-03-13T08:13:54;97759.25;;;12.05;77.06
7760;BME280;3924;48.830;9.262;2023-03-13T08:16:29;97743.41;;;12.08;77.05
7760;BME280;3924;48.830;9.262;2023-03-13T08:18:57;97732.38;;;12.13;76.57
7760;BME280;3924;48.830;9.262;2023-03-13T08:21:29;97730.63;;;12.17;76.54
7760;BME280;3924;48.830;9.262;2023-03-13T08:23:58;97732.19;;;12.26;76.25
7760;BME280;3924;48.830;9.262;2023-03-13T08:26:28;97719.84;;;12.38;76.85
7760;BME280;3924;48.830;9.262;2023-03-13T08:29:00;97711.34;;;12.48;76.75
7760;BME280;3924;48.830;9.262;2023-03-13T08:31:29;97715.97;;;12.56;76.86
7760;BME280;3924;48.830;9.262;2023-03-13T08:33:56;97726.31;;;12.63;76.00
7760;BME280;3924;48.830;9.262;2023-03-13T08:36:33;97717.19;;;12.67;75.98
7760;BME280;3924;48.830;9.262;2023-03-13T08:39:03;97729.63;;;12.77;76.48
7760;BME280;3924;48.830;9.262;2023-03-13T08:41:33;97729.91;;;12.84;75.52
7760;BME280;3924;48.830;9.262;2023-03-13T08:44:03;97723.13;;;12.90;76.27
7760;BME280;3924;48.830;9.262;2023-03-13T08:46:32;97722.84;;;12.92;75.51
7760;BME280;3924;48.830;9.262;2023-03-13T08:49:00;97730.00;;;12.96;75.75
7760;BME280;3924;48.830;9.262;2023-03-13T08:51:28;97725.84;;;12.99;75.93
7760;BME280;3924;48.830;9.262;2023-03-13T08:53:55;97730.16;;;13.00;75.46
7760;BME280;3924;48.830;9.262;2023-03-13T08:56:24;97721.81;;;13.05;75.61
7760;BME280;3924;48.830;9.262;2023-03-13T08:58:53;97733.47;;;13.05;75.33
7760;BME280;3924;48.830;9.262;2023-03-13T09:01:22;97735.34;;;13.13;75.63
7760;BME280;3924;48.830;9.262;2023-03-13T09:03:49;97733.25;;;13.19;75.38
7760;BME280;3924;48.830;9.262;2023-03-13T09:06:16;97726.50;;;13.25;75.28
7760;BME280;3924;48.830;9.262;2023-03-13T09:08:43;97725.84;;;13.28;75.32
7760;BME280;3924;48.830;9.262;2023-03-13T09:11:12;97720.22;;;13.33;75.01
7760;BME280;3924;48.830;9.262;2023-03-13T09:13:41;97716.81;;;13.36;75.08
7760;BME280;3924;48.830;9.262;2023-03-13T09:16:16;97730.09;;;13.38;75.43
7760;BME280;3924;48.830;9.262;2023-03-13T09:18:43;97717.41;;;13.42;74.92
7760;BME280;3924;48.830;9.262;2023-03-13T09:21:21;97714.16;;;13.49;74.95
7760;BME280;3924;48.830;9.262;2023-03-13T09:23:49;97714.44;;;13.56;75.07
7760;BME280;3924;48.830;9.262;2023-03-13T09:26:17;97711.50;;;13.61;74.67
7760;BME280;3924;48.830;9.262;2023-03-13T09:28:47;97716.53;;;13.71;74.47
7760;BME280;3924;48.830;9.262;2023-03-13T09:31:17;97717.28;;;13.80;74.10
7760;BME280;3924;48.830;9.262;2023-03-13T09:33:47;97717.78;;;13.94;73.96
7760;BME280;3924;48.830;9.262;2023-03-13T09:36:15;97727.13;;;14.06;74.01
7760;BME280;3924;48.830;9.262;2023-03-13T09:38:46;97725.66;;;14.08;73.38
7760;BME280;3924;48.830;9.262;2023-03-13T09:41:38;97729.97;;;14.09;73.44
7760;BME280;3924;48.830;9.262;2023-03-13T09:44:10;97736.34;;;14.13;73.51
7760;BME280;3924;48.830;9.262;2023-03-13T09:49:48;97723.53;;;14.14;73.34
7760;BME280;3924;48.830;9.262;2023-03-13T09:52:21;97733.06;;;14.20;73.43
7760;BME280;3924;48.830;9.262;2023-03-13T09:57:45;97735.69;;;14.49;72.45
7760;BME280;3924;48.830;9.262;2023-03-13T10:00:23;97715.25;;;14.92;71.87
7760;BME280;3924;48.830;9.262;2023-03-13T10:03:21;97714.91;;;15.18;71.21
7760;BME280;3924;48.830;9.262;2023-03-13T10:05:51;97708.19;;;15.16;71.21
7760;BME280;3924;48.830;9.262;2023-03-13T10:08:24;97695.78;;;15.18;70.66
7760;BME280;3924;48.830;9.262;2023-03-13T10:10:57;97696.81;;;15.14;70.84
7760;BME280;3924;48.830;9.262;2023-03-13T10:16:21;97680.47;;;14.89;71.63
7760;BME280;3924;48.830;9.262;2023-03-13T10:18:55;97677.50;;;14.94;71.17
7760;BME280;3924;48.830;9.262;2023-03-13T10:21:33;97669.38;;;15.22;70.63
7760;BME280;3924;48.830;9.262;2023-03-13T10:26:35;97656.31;;;15.84;69.64
7760;BME280;3924;48.830;9.262;2023-03-13T10:29:26;97645.03;;;16.13;68.76
7760;BME280;3924;48.830;9.262;2023-03-13T10:32:00;97647.41;;;16.31;68.41
7760;BME280;3924;48.830;9.262;2023-03-13T10:34:30;97646.78;;;16.53;67.45
7760;BME280;3924;48.830;9.262;2023-03-13T10:37:13;97644.25;;;16.76;67.56
7760;BME280;3924;48.830;9.262;2023-03-13T10:39:40;97642.81;;;16.82;67.05
7760;BME280;3924;48.830;9.262;2023-03-13T10:42:21;97644.84;;;16.85;67.50
7760;BME280;3924;48.830;9.262;2023-03-13T10:44:55;97637.25;;;16.79;66.38
7760;BME280;3924;48.830;9.262;2023-03-13T10:47:21;97643.44;;;16.76;66.85
7760;BME280;3924;48.830;9.262;2023-03-13T10:49:51;97643.88;;;16.62;66.43
7760;BME280;3924;48.830;9.262;2023-03-13T10:52:29;97633.91;;;16.38;66.77
7760;BME280;3924;48.830;9.262;2023-03-13T10:55:05;97641.13;;;16.30;67.31
7760;BME280;3924;48.830;9.262;2023-03-13T10:57:34;97628.25;;;16.31;67.43
7760;BME280;3924;48.830;9.262;2023-03-13T11:00:22;97633.56;;;16.55;66.60
7760;BME280;3924;48.830;9.262;2023-03-13T11:02:52;97620.19;;;16.85;65.98
7760;BME280;3924;48.830;9.262;2023-03-13T11:07:48;97606.34;;;17.52;64.04
7760;BME280;3924;48.830;9.262;2023-03-13T11:10:21;97627.69;;;17.62;63.31
7760;BME280;3924;48.830;9.262;2023-03-13T11:12:50;97617.59;;;17.66;63.67
7760;BME280;3924;48.830;9.262;2023-03-13T11:15:24;97627.25;;;17.41;64.12
7760;BME280;3924;48.830;9.262;2023-03-13T11:18:09;97612.91;;;17.09;64.94
7760;BME280;3924;48.830;9.262;2023-03-13T11:20:40;97594.78;;;16.85;64.96
7760;BME280;3924;48.830;9.262;2023-03-13T11:23:21;97602.38;;;16.76;64.96
7760;BME280;3924;48.830;9.262;2023-03-13T11:26:18;97589.94;;;16.78;64.79
7760;BME280;3924;48.830;9.262;2023-03-13T11:31:47;97578.03;;;16.71;65.32
7760;BME280;3924;48.830;9.262;2023-03-13T11:37:10;97564.41;;;17.09;64.35
7760;BME280;3924;48.830;9.262;2023-03-13T11:51:33;97533.81;;;18.64;60.53
7760;BME280;3924;48.830;9.262;2023-03-13T11:54:28;97508.50;;;18.48;60.99
7760;BME280;3924;48.830;9.262;2023-03-13T11:57:12;97509.00;;;18.30;60.69
7760;BME280;3924;48.830;9.262;2023-03-13T12:02:48;97487.56;;;17.87;61.22
7760;BME280;3924;48.830;9.262;2023-03-13T12:05:18;97481.56;;;17.77;60.85
7760;BME280;3924;48.830;9.262;2023-03-13T12:08:04;97471.22;;;17.94;61.49
7760;BME280;3924;48.830;9.262;2023-03-13T12:10:38;97470.56;;;18.00;60.76
7760;BME280;3924;48.830;9.262;2023-03-13T12:13:13;97461.44;;;18.19;59.89
7760;BME280;3924;48.830;9.262;2023-03-13T12:15:45;97451.34;;;18.53;59.92
7760;BME280;3924;48.830;9.262;2023-03-13T12:18:35;97452.41;;;18.75;58.82
7760;BME280;3924;48.830;9.262;2023-03-13T12:21:25;97446.06;;;18.68;59.04
7760;BME280;3924;48.830;9.262;2023-03-13T12:24:37;97435.09;;;19.05;59.10
7760;BME280;3924;48.830;9.262;2023-03-13T12:27:20;97421.66;;;19.33;58.02
7760;BME280;3924;48.830;9.262;2023-03-13T12:29:58;97415.84;;;19.42;56.98
7760;BME280;3924;48.830;9.262;2023-03-13T12:32:35;97413.91;;;19.43;57.99
7760;BME280;3924;48.830;9.262;2023-03-13T12:35:06;97395.06;;;19.45;57.11
7760;BME280;3924;48.830;9.262;2023-03-13T12:40:26;97386.50;;;19.53;57.22
7760;BME280;3924;48.830;9.262;2023-03-13T12:43:01;97367.72;;;19.59;56.81
7760;BME280;3924;48.830;9.262;2023-03-13T12:45:31;97363.09;;;19.74;56.96
7760;BME280;3924;48.830;9.262;2023-03-13T12:48:22;97344.31;;;19.83;55.71
7760;BME280;3924;48.830;9.262;2023-03-13T12:54:32;97334.56;;;19.92;56.01
7760;BME280;3924;48.830;9.262;2023-03-13T12:57:23;97313.06;;;20.19;55.20
7760;BME280;3924;48.830;9.262;2023-03-13T12:59:59;97311.53;;;20.29;54.29
7760;BME280;3924;48.830;9.262;2023-03-13T13:02:31;97295.00;;;20.26;54.13
7760;BME280;3924;48.830;9.262;2023-03-13T13:04:59;97289.47;;;20.11;54.76
7760;BME280;3924;48.830;9.262;2023-03-13T13:10:24;97290.06;;;19.80;54.70
7760;BME280;3924;48.830;9.262;2023-03-13T13:15:48;97268.91;;;19.94;54.50
7760;BME280;3924;48.830;9.262;2023-03-13T13:18:29;97268.94;;;19.98;54.04
7760;BME280;3924;48.830;9.262;2023-03-13T13:23:37;97253.28;;;20.13;53.86
7760;BME280;3924;48.830;9.262;2023-03-13T13:28:56;97238.75;;;20.12;53.61
7760;BME280;3924;48.830;9.262;2023-03-13T13:37:01;97213.13;;;19.98;53.39
7760;BME280;3924;48.830;9.262;2023-03-13T13:39:43;97200.50;;;19.86;53.57
7760;BME280;3924;48.830;9.262;2023-03-13T13:42:36;97212.25;;;19.72;53.73
7760;BME280;3924;48.830;9.262;2023-03-13T13:47:45;97195.69;;;19.58;53.67
7760;BME280;3924;48.830;9.262;2023-03-13T13:50:18;97188.53;;;19.50;53.72
7760;BME280;3924;48.830;9.262;2023-03-13T13:52:47;97179.97;;;19.58;53.84
7760;BME280;3924;48.830;9.262;2023-03-13T13:58:11;97181.25;;;19.86;52.61
7760;BME280;3924;48.830;9.262;2023-03-13T14:00:42;97171.03;;;19.86;52.54
7760;BME280;3924;48.830;9.262;2023-03-13T14:03:24;97165.13;;;19.81;52.43
7760;BME280;3924;48.830;9.262;2023-03-13T14:05:55;97154.16;;;19.84;52.63
7760;BME280;3924;48.830;9.262;2023-03-13T14:08:26;97154.91;;;19.78;52.38
7760;BME280;3924;48.830;9.262;2023-03-13T14:11:22;97156.06;;;19.73;52.39
7760;BME280;3924;48.830;9.262;2023-03-13T14:16:36;97133.69;;;19.78;52.82
7760;BME280;3924;48.830;9.262;2023-03-13T14:19:03;97128.97;;;19.82;52.41
7760;BME280;3924;48.830;9.262;2023-03-13T14:21:30;97122.69;;;19.82;52.61
7760;BME280;3924;48.830;9.262;2023-03-13T14:23:56;97123.44;;;19.75;51.82
7760;BME280;3924;48.830;9.262;2023-03-13T14:26:24;97120.34;;;19.84;52.14
7760;BME280;3924;48.830;9.262;2023-03-13T14:28:52;97108.59;;;20.05;51.35
7760;BME280;3924;48.830;9.262;2023-03-13T14:33:49;97102.34;;;20.36;50.33
7760;BME280;3924;48.830;9.262;2023-03-13T14:36:15;97087.81;;;20.64;50.74
7760;BME280;3924;48.830;9.262;2023-03-13T14:38:51;97077.19;;;20.81;49.62
7760;BME280;3924;48.830;9.262;2023-03-13T14:41:44;97076.78;;;20.75;50.28
7760;BME280;3924;48.830;9.262;2023-03-13T14:44:25;97074.00;;;20.79;49.84
7760;BME280;3924;48.830;9.262;2023-03-13T14:46:56;97058.25;;;20.79;50.13
7760;BME280;3924;48.830;9.262;2023-03-13T14:49:26;97056.28;;;20.90;49.30
7760;BME280;3924;48.830;9.262;2023-03-13T14:52:04;97045.63;;;21.03;48.90
7760;BME280;3924;48.830;9.262;2023-03-13T14:54:33;97035.34;;;21.11;49.07
7760;BME280;3924;48.830;9.262;2023-03-13T14:59:36;97027.41;;;21.27;48.16